createdAt,value
2018-01-20T00:01:14.526Z,93513.27
2018-01-20T00:03:41.090Z,93503.52
2018-01-20T00:06:07.743Z,93504.33
2018-01-20T00:08:34.408Z,93501.34
2018-01-20T00:11:19.533Z,93500.19
2018-01-20T00:13:46.115Z,93498.34
2018-01-20T00:16:12.768Z,93497.22
2018-01-20T00:18:39.392Z,93498.72
2018-01-20T00:21:05.991Z,93485.97
2018-01-20T00:23:32.611Z,93491.06
2018-01-20T00:26:05.369Z,93491.06
2018-01-20T00:28:32.006Z,93486.88
2018-01-20T00:30:58.671Z,93487.94
2018-01-20T00:33:25.248Z,93488.34
2018-01-20T00:35:51.891Z,93489.86
2018-01-20T00:38:18.462Z,93486.63
2018-01-20T00:40:45.059Z,93492.61
2018-01-20T00:43:11.655Z,93487.28
2018-01-20T00:45:38.286Z,93484.56
2018-01-20T00:48:04.860Z,93479.44
2018-01-20T00:50:32.203Z,93482.32
2018-01-20T00:52:58.847Z,93483.41
2018-01-20T00:55:26.163Z,93488.78
2018-01-20T00:57:52.775Z,93488.20
2018-01-20T01:00:19.422Z,93489.62
2018-01-20T01:02:46.011Z,93495.59
2018-01-20T01:05:13.330Z,93493.48
2018-01-20T01:07:40.682Z,93490.55
2018-01-20T01:10:07.293Z,93486.91
2018-01-20T01:12:33.903Z,93479.27
2018-01-20T01:15:00.498Z,93479.75
2018-01-20T01:17:27.065Z,93480.19
2018-01-20T01:19:54.377Z,93472.41
2018-01-20T01:22:20.962Z,93472.54
2018-01-20T01:24:47.542Z,93469.95
2018-01-20T01:27:14.136Z,93474.38
2018-01-20T01:29:40.830Z,93469.21
2018-01-20T01:32:07.449Z,93458.89
2018-01-20T01:34:34.027Z,93459.41
2018-01-20T01:37:00.678Z,93458.98
2018-01-20T01:39:28.008Z,93460.08
2018-01-20T01:41:54.622Z,93461.58
2018-01-20T01:44:21.222Z,93461.78
2018-01-20T01:46:47.801Z,93455.97
2018-01-20T01:49:14.397Z,93460.16
2018-01-20T01:51:41.381Z,93460.83
2018-01-20T01:54:08.243Z,93459.74
2018-01-20T01:56:35.648Z,93452.27
2018-01-20T01:59:02.326Z,93455.67
2018-01-20T02:01:28.899Z,93449.55
2018-01-20T02:03:55.616Z,93464.86
2018-01-20T02:06:22.333Z,93456.14
2018-01-20T02:08:48.931Z,93450.88
2018-01-20T02:11:15.541Z,93448.83
2018-01-20T02:13:42.137Z,93452.20
2018-01-20T02:16:08.815Z,93434.97
2018-01-20T02:18:35.421Z,93433.78
2018-01-20T02:21:02.246Z,93431.58
2018-01-20T02:23:28.833Z,93433.89
2018-01-20T02:25:55.394Z,93428.08
2018-01-20T02:28:22.013Z,93425.56
2018-01-20T02:30:49.337Z,93413.23
2018-01-20T02:33:15.950Z,93412.05
2018-01-20T02:35:42.698Z,93422.98
2018-01-20T02:38:09.254Z,93413.17
2018-01-20T02:40:35.896Z,93406.23
2018-01-20T02:43:02.807Z,93410.01
2018-01-20T02:45:29.380Z,93401.79
2018-01-20T02:47:55.942Z,93402.47
2018-01-20T02:50:22.531Z,93395.20
2018-01-20T02:52:49.133Z,93396.05
2018-01-20T02:55:15.798Z,93396.56
2018-01-20T02:57:42.463Z,93385.96
2018-01-20T03:00:09.874Z,93376.69
2018-01-20T03:02:36.459Z,93369.25
2018-01-20T03:05:03.067Z,93371.42
2018-01-20T03:07:29.810Z,93360.08
2018-01-20T03:09:56.402Z,93365.01
2018-01-20T03:12:23.000Z,93362.42
2018-01-20T03:14:49.558Z,93363.37
2018-01-20T03:17:16.934Z,93361.41
2018-01-20T03:19:43.542Z,93362.28
2018-01-20T03:22:10.190Z,93350.36
2018-01-20T03:24:37.522Z,93351.62
2018-01-20T03:27:04.178Z,93362.42
2018-01-20T03:29:31.481Z,93360.92
2018-01-20T03:31:58.050Z,93361.91
2018-01-20T03:34:25.383Z,93367.72
2018-01-20T03:36:51.977Z,93360.08
2018-01-20T03:39:18.606Z,93352.05
2018-01-20T03:41:45.254Z,93359.44
2018-01-20T03:44:11.842Z,93354.05
2018-01-20T03:46:38.390Z,93364.77
2018-01-20T03:49:04.971Z,93350.57
2018-01-20T03:51:31.547Z,93345.34
2018-01-20T03:53:58.998Z,93346.70
2018-01-20T03:56:25.634Z,93340.96
2018-01-20T03:58:52.333Z,93336.14
2018-01-20T04:01:19.006Z,93331.58
2018-01-20T04:03:45.710Z,93325.23
2018-01-20T04:06:12.304Z,93334.61
2018-01-20T04:08:38.878Z,93322.25
2018-01-20T04:11:05.550Z,93323.61
2018-01-20T04:13:32.114Z,93317.13
2018-01-20T04:15:58.689Z,93324.89
2018-01-20T04:18:25.271Z,93319.48
2018-01-20T04:20:51.842Z,93322.84
2018-01-20T04:23:19.221Z,93316.64
2018-01-20T04:25:45.937Z,93318.32
2018-01-20T04:28:12.554Z,93312.25
2018-01-20T04:30:39.127Z,93302.77
2018-01-20T04:33:05.798Z,93298.14
2018-01-20T04:35:32.402Z,93292.45
2018-01-20T04:37:58.995Z,93291.19
2018-01-20T04:40:26.217Z,93299.65
2018-01-20T04:42:52.856Z,93300.74
2018-01-20T04:45:19.445Z,93289.80
2018-01-20T04:47:46.121Z,93300.43
2018-01-20T04:50:12.722Z,93301.52
2018-01-20T04:52:40.099Z,93301.92
2018-01-20T04:55:06.693Z,93303.17
2018-01-20T04:57:33.513Z,93298.66
2018-01-20T05:00:00.093Z,93303.81
2018-01-20T05:02:27.427Z,93299.75
2018-01-20T05:04:54.027Z,93300.43
2018-01-20T05:07:20.687Z,93292.86
2018-01-20T05:09:47.969Z,93287.56
2018-01-20T05:12:15.315Z,93277.63
2018-01-20T05:14:41.885Z,93281.64
2018-01-20T05:17:08.454Z,93268.14
2018-01-20T05:19:35.044Z,93260.83
2018-01-20T05:22:01.661Z,93264.00
2018-01-20T05:24:28.256Z,93265.60
2018-01-20T05:26:54.847Z,93265.70
2018-01-20T05:29:21.954Z,93270.98
2018-01-20T05:31:49.263Z,93264.24
2018-01-20T05:34:15.837Z,93259.05
2018-01-20T05:36:42.432Z,93270.63
2018-01-20T05:39:09.035Z,93271.27
2018-01-20T05:41:35.602Z,93277.31
2018-01-20T05:44:02.241Z,93277.19
2018-01-20T05:46:29.542Z,93270.67
2018-01-20T05:48:56.155Z,93270.47
2018-01-20T05:51:22.746Z,93266.96
2018-01-20T05:53:50.058Z,93269.59
2018-01-20T05:56:16.646Z,93263.50
2018-01-20T05:58:43.259Z,93269.59
2018-01-20T06:01:09.884Z,93266.87
2018-01-20T06:03:36.471Z,93269.99
2018-01-20T06:06:03.067Z,93269.59
2018-01-20T06:08:30.402Z,93276.85
2018-01-20T06:10:57.009Z,93280.72
2018-01-20T06:13:23.611Z,93287.47
2018-01-20T06:15:50.302Z,93273.56
2018-01-20T06:18:16.994Z,93270.80
2018-01-20T06:20:44.314Z,93276.06
2018-01-20T06:23:11.622Z,93267.88
2018-01-20T06:25:38.962Z,93257.67
2018-01-20T06:28:06.566Z,93255.95
2018-01-20T06:30:33.142Z,93262.71
2018-01-20T06:32:59.682Z,93260.78
2018-01-20T06:35:26.261Z,93261.05
2018-01-20T06:37:52.827Z,93254.20
2018-01-20T06:40:19.516Z,93258.65
2018-01-20T06:42:46.090Z,93244.21
2018-01-20T06:45:12.670Z,93247.39
2018-01-20T06:47:40.252Z,93248.85
2018-01-20T06:50:06.853Z,93259.92
2018-01-20T06:52:33.451Z,93250.98
2018-01-20T06:55:00.035Z,93252.20
2018-01-20T06:57:26.678Z,93248.12
2018-01-20T06:59:53.324Z,93247.66
2018-01-20T07:02:20.671Z,93244.12
2018-01-20T07:04:47.990Z,93247.66
2018-01-20T07:07:15.365Z,93249.31
2018-01-20T07:09:42.687Z,93247.44
2018-01-20T07:12:09.275Z,93262.10
2018-01-20T07:14:36.709Z,93255.41
2018-01-20T07:17:03.306Z,93247.80
2018-01-20T07:19:29.990Z,93247.06
2018-01-20T07:21:56.598Z,93250.37
2018-01-20T07:24:23.273Z,93242.92
2018-01-20T07:26:49.886Z,93238.45
2018-01-20T07:29:16.456Z,93230.30
2018-01-20T07:31:43.830Z,93232.10
2018-01-20T07:34:11.335Z,93231.23
2018-01-20T07:36:37.976Z,93230.41
2018-01-20T07:39:04.599Z,93227.03
2018-01-20T07:41:31.302Z,93232.66
2018-01-20T07:43:57.866Z,93235.66
2018-01-20T07:46:24.465Z,93245.77
2018-01-20T07:48:51.066Z,93231.63
2018-01-20T07:51:17.631Z,93238.36
2018-01-20T07:53:45.031Z,93234.75
2018-01-20T07:56:11.722Z,93235.11
2018-01-20T07:58:38.322Z,93229.89
2018-01-20T08:01:05.030Z,93229.20
2018-01-20T08:03:31.610Z,93235.13
2018-01-20T08:05:58.230Z,93227.75
2018-01-20T08:08:24.841Z,93225.02
2018-01-20T08:10:51.499Z,93220.54
2018-01-20T08:13:18.078Z,93217.40
2018-01-20T08:15:45.424Z,93211.09
2018-01-20T08:18:12.841Z,93205.31
2018-01-20T08:20:39.414Z,93207.75
2018-01-20T08:23:05.994Z,93208.65
2018-01-20T08:25:32.672Z,93213.50
2018-01-20T08:27:59.272Z,93202.81
2018-01-20T08:30:25.946Z,93210.77
2018-01-20T08:32:52.538Z,93202.20
2018-01-20T08:35:19.257Z,93201.50
2018-01-20T08:37:46.663Z,93201.09
2018-01-20T08:40:13.387Z,93203.16
2018-01-20T08:42:39.978Z,93196.30
2018-01-20T08:45:07.357Z,93194.02
2018-01-20T08:47:33.935Z,93192.61
2018-01-20T08:50:00.567Z,93191.31
2018-01-20T08:52:27.750Z,93188.47
2018-01-20T08:54:54.355Z,93188.11
2018-01-20T08:57:20.999Z,93188.13
2018-01-20T08:59:47.615Z,93182.75
2018-01-20T09:02:14.222Z,93181.51
2018-01-20T09:04:40.838Z,93182.19
2018-01-20T09:07:07.425Z,93168.85
2018-01-20T09:09:34.058Z,93165.24
2018-01-20T09:12:00.753Z,93162.73
2018-01-20T09:14:27.348Z,93161.70
2018-01-20T09:16:53.937Z,93162.58
2018-01-20T09:19:22.574Z,93153.49
2018-01-20T09:21:49.961Z,93154.72
2018-01-20T09:24:17.306Z,93151.16
2018-01-20T09:26:44.253Z,93148.14
2018-01-20T09:29:10.844Z,93146.25
2018-01-20T09:31:37.474Z,93145.52
2018-01-20T09:34:04.190Z,93127.50
2018-01-20T09:36:31.612Z,93138.98
2018-01-20T09:38:58.225Z,93131.38
2018-01-20T09:41:24.824Z,93122.52
2018-01-20T09:43:51.481Z,93123.22
2018-01-20T09:46:18.102Z,93125.50
2018-01-20T09:48:44.700Z,93122.59
2018-01-20T09:51:11.379Z,93114.09
2018-01-20T09:53:38.016Z,93109.01
2018-01-20T09:56:04.664Z,93095.98
2018-01-20T09:58:31.299Z,93096.05
2018-01-20T10:00:57.930Z,93095.09
2018-01-20T10:03:25.549Z,93088.20
2018-01-20T10:05:52.127Z,93084.64
2018-01-20T10:08:19.470Z,93082.36
2018-01-20T10:10:46.145Z,93078.92
2018-01-20T10:13:13.527Z,93069.25
2018-01-20T10:15:40.153Z,93067.95
2018-01-20T10:18:06.830Z,93061.96
2018-01-20T10:20:33.494Z,93059.27
2018-01-20T10:23:00.095Z,93050.87
2018-01-20T10:25:26.741Z,93040.39
2018-01-20T10:27:54.132Z,93028.72
2018-01-20T10:30:20.802Z,93022.73
2018-01-20T10:32:47.422Z,93018.34
2018-01-20T10:35:14.057Z,93006.95
2018-01-20T10:37:40.686Z,92998.72
2018-01-20T10:40:07.348Z,93001.04
2018-01-20T10:42:33.975Z,92999.80
2018-01-20T10:45:00.578Z,92988.68
2018-01-20T10:47:27.200Z,92984.19
2018-01-20T10:49:54.577Z,92971.09
2018-01-20T10:52:21.325Z,92970.23
2018-01-20T10:54:47.916Z,92965.70
2018-01-20T10:57:14.520Z,92957.90
2018-01-20T10:59:41.130Z,92937.66
2018-01-20T11:02:07.742Z,92933.88
2018-01-20T11:04:35.093Z,92917.48
2018-01-20T11:07:01.738Z,92910.55
2018-01-20T11:09:29.360Z,92909.90
2018-01-20T11:11:55.954Z,92906.30
2018-01-20T11:14:22.578Z,92900.25
2018-01-20T11:16:50.162Z,92883.45
2018-01-20T11:19:16.767Z,92878.67
2018-01-20T11:21:43.422Z,92865.15
2018-01-20T11:24:10.038Z,92864.94
2018-01-20T11:26:37.476Z,92851.91
2018-01-20T11:29:04.109Z,92860.17
2018-01-20T11:31:30.684Z,92831.53
2018-01-20T11:33:57.306Z,92826.23
2018-01-20T11:36:23.964Z,92817.52
2018-01-20T11:38:50.537Z,92808.13
2018-01-20T11:41:17.160Z,92798.84
2018-01-20T11:43:43.850Z,92793.19
2018-01-20T11:46:10.545Z,92783.97
2018-01-20T11:48:37.135Z,92777.88
2018-01-20T11:51:03.718Z,92762.79
2018-01-20T11:53:30.482Z,92749.09
2018-01-20T11:55:57.113Z,92741.51
2018-01-20T11:58:23.723Z,92734.78
2018-01-20T12:00:50.369Z,92735.09
2018-01-20T12:03:17.105Z,92721.33
2018-01-20T12:05:43.765Z,92725.26
2018-01-20T12:08:10.466Z,92711.09
2018-01-20T12:10:37.058Z,92703.23
2018-01-20T12:13:06.050Z,92687.42
2018-01-20T12:15:35.143Z,92687.56
2018-01-20T12:18:02.148Z,92677.86
2018-01-20T12:20:28.846Z,92664.72
2018-01-20T12:22:56.228Z,92655.11
2018-01-20T12:25:22.878Z,92654.26
2018-01-20T12:27:49.503Z,92654.96
2018-01-20T12:30:16.186Z,92638.98
2018-01-20T12:32:42.849Z,92630.11
2018-01-20T12:35:09.506Z,92628.52
2018-01-20T12:37:36.852Z,92622.27
2018-01-20T12:40:04.269Z,92620.21
2018-01-20T12:42:30.990Z,92596.59
2018-01-20T12:44:57.624Z,92598.02
2018-01-20T12:47:24.447Z,92580.38
2018-01-20T12:49:51.126Z,92560.50
2018-01-20T12:52:17.777Z,92560.30
2018-01-20T12:54:45.147Z,92557.02
2018-01-20T12:57:11.769Z,92549.78
2018-01-20T12:59:38.438Z,92542.73
2018-01-20T13:02:05.099Z,92527.86
2018-01-20T13:04:31.701Z,92524.06
2018-01-20T13:06:59.198Z,92523.17
2018-01-20T13:09:25.816Z,92511.80
2018-01-20T13:11:52.465Z,92507.25
2018-01-20T13:14:19.103Z,92490.20
2018-01-20T13:16:45.689Z,92481.70
2018-01-20T13:19:12.271Z,92474.20
2018-01-20T13:21:38.914Z,92461.02
2018-01-20T13:24:05.602Z,92459.52
2018-01-20T13:26:32.203Z,92446.48
2018-01-20T13:28:58.792Z,92439.42
2018-01-20T13:31:26.152Z,92439.77
2018-01-20T13:33:53.562Z,92419.31
2018-01-20T13:36:20.170Z,92422.85
2018-01-20T13:38:46.775Z,92409.91
2018-01-20T13:41:13.518Z,92407.17
2018-01-20T13:43:40.190Z,92400.93
2018-01-20T13:46:06.778Z,92410.56
2018-01-20T13:48:33.474Z,92392.06
2018-01-20T13:51:00.063Z,92388.55
2018-01-20T13:53:26.643Z,92374.02
2018-01-20T13:55:53.291Z,92366.25
2018-01-20T13:58:19.910Z,92361.95
2018-01-20T14:00:46.554Z,92364.05
2018-01-20T14:03:13.159Z,92353.86
2018-01-20T14:05:40.473Z,92345.67
2018-01-20T14:08:07.901Z,92333.08
2018-01-20T14:10:34.512Z,92330.14
2018-01-20T14:13:01.842Z,92329.28
2018-01-20T14:15:28.471Z,92320.83
2018-01-20T14:17:55.127Z,92328.22
2018-01-20T14:20:21.690Z,92317.77
2018-01-20T14:22:48.295Z,92316.95
2018-01-20T14:25:15.223Z,92301.35
2018-01-20T14:27:41.851Z,92299.66
2018-01-20T14:30:08.475Z,92281.59
2018-01-20T14:32:35.125Z,92282.36
2018-01-20T14:35:01.733Z,92283.80
2018-01-20T14:37:28.340Z,92277.56
2018-01-20T14:39:55.719Z,92257.62
2018-01-20T14:42:22.300Z,92256.13
2018-01-20T14:44:48.926Z,92245.12
2018-01-20T14:47:15.549Z,92222.97
2018-01-20T14:49:42.192Z,92222.61
2018-01-20T14:52:08.845Z,92225.48
2018-01-20T14:54:35.433Z,92220.72
2018-01-20T14:57:02.094Z,92210.70
2018-01-20T14:59:28.676Z,92197.23
2018-01-20T15:01:55.539Z,92185.84
2018-01-20T15:04:22.890Z,92177.22
2018-01-20T15:06:49.643Z,92171.08
2018-01-20T15:09:16.301Z,92167.33
2018-01-20T15:11:42.918Z,92152.55
2018-01-20T15:14:10.394Z,92158.76
2018-01-20T15:16:36.978Z,92153.34
2018-01-20T15:19:03.606Z,92149.92
2018-01-20T15:21:30.219Z,92170.25
2018-01-20T15:23:56.836Z,92130.97
2018-01-20T15:26:23.441Z,92120.43
2018-01-20T15:28:50.059Z,92107.69
2018-01-20T15:31:18.277Z,92095.95
2018-01-20T15:33:44.873Z,92100.89
2018-01-20T15:36:11.483Z,92096.37
2018-01-20T15:38:38.077Z,92091.92
2018-01-20T15:41:05.411Z,92085.13
2018-01-20T15:43:32.061Z,92074.22
2018-01-20T15:45:59.394Z,92072.16
2018-01-20T15:48:25.972Z,92074.37
2018-01-20T15:50:52.657Z,92073.80
2018-01-20T15:53:19.261Z,92071.52
2018-01-20T15:55:45.909Z,92064.86
2018-01-20T15:58:12.493Z,92062.22
2018-01-20T16:00:39.090Z,92051.80
2018-01-20T16:03:05.811Z,92050.73
2018-01-20T16:05:32.546Z,92047.70
2018-01-20T16:07:59.225Z,92048.45
2018-01-20T16:10:25.837Z,92042.64
2018-01-20T16:12:52.478Z,92036.96
2018-01-20T16:15:19.103Z,92036.66
2018-01-20T16:17:45.731Z,92034.06
2018-01-20T16:20:12.333Z,92020.00
2018-01-20T16:22:39.655Z,92013.90
2018-01-20T16:25:07.411Z,92018.19
2018-01-20T16:27:33.992Z,92020.14
2018-01-20T16:30:01.364Z,92015.02
2018-01-20T16:32:28.230Z,92010.72
2018-01-20T16:34:54.841Z,92004.55
2018-01-20T16:37:23.225Z,91995.95
2018-01-20T16:39:49.854Z,91995.46
2018-01-20T16:42:16.441Z,91986.68
2018-01-20T16:44:43.076Z,91980.73
2018-01-20T16:47:09.685Z,91985.16
2018-01-20T16:49:36.270Z,91976.69
2018-01-20T16:52:03.634Z,91969.24
2018-01-20T16:54:30.250Z,91968.67
2018-01-20T16:56:57.601Z,91961.81
2018-01-20T16:59:24.205Z,91957.36
2018-01-20T17:01:50.774Z,91951.92
2018-01-20T17:04:17.408Z,91959.14
2018-01-20T17:06:43.990Z,91968.73
2018-01-20T17:09:11.350Z,91954.77
2018-01-20T17:11:38.718Z,91955.67
2018-01-20T17:14:05.308Z,91961.56
2018-01-20T17:16:31.946Z,91958.97
2018-01-20T17:18:58.534Z,91961.23
2018-01-20T17:21:25.130Z,91956.97
2018-01-20T17:23:52.519Z,91950.86
2018-01-20T17:26:19.070Z,91948.81
2018-01-20T17:28:46.189Z,91949.02
2018-01-20T17:31:13.495Z,91959.30
2018-01-20T17:33:40.132Z,91945.46
2018-01-20T17:36:07.518Z,91944.56
2018-01-20T17:38:34.875Z,91945.76
2018-01-20T17:41:02.225Z,91938.58
2018-01-20T17:43:30.291Z,91941.39
2018-01-20T17:45:57.220Z,91952.08
2018-01-20T17:48:23.833Z,91962.39
2018-01-20T17:50:50.461Z,91962.62
2018-01-20T17:53:17.131Z,91967.89
2018-01-20T17:55:43.774Z,91967.55
2018-01-20T17:58:10.358Z,91965.78
2018-01-20T18:00:37.001Z,91965.78
2018-01-20T18:03:03.671Z,91969.80
2018-01-20T18:05:30.257Z,91960.55
2018-01-20T18:07:56.898Z,91958.81
2018-01-20T18:10:23.510Z,91961.12
2018-01-20T18:12:50.083Z,91962.01
2018-01-20T18:15:16.896Z,91960.45
2018-01-20T18:17:43.636Z,91962.86
2018-01-20T18:20:11.065Z,91963.66
2018-01-20T18:22:37.650Z,91961.25
2018-01-20T18:25:04.251Z,91960.03
2018-01-20T18:27:30.851Z,91964.47
2018-01-20T18:29:57.454Z,91963.73
2018-01-20T18:32:24.851Z,91965.39
2018-01-20T18:34:51.438Z,91965.75
2018-01-20T18:37:18.898Z,91979.06
2018-01-20T18:39:46.229Z,91972.84
2018-01-20T18:42:13.638Z,91984.23
2018-01-20T18:44:40.283Z,91986.59
2018-01-20T18:47:06.901Z,91993.34
2018-01-20T18:49:34.203Z,91990.71
2018-01-20T18:52:01.606Z,91989.17
2018-01-20T18:54:28.211Z,91996.20
2018-01-20T18:56:55.583Z,92002.64
2018-01-20T18:59:22.900Z,92005.81
2018-01-20T19:01:49.758Z,92009.99
2018-01-20T19:04:16.346Z,92016.55
2018-01-20T19:06:42.949Z,92012.23
2018-01-20T19:09:10.341Z,92011.04
2018-01-20T19:11:36.933Z,92018.97
2018-01-20T19:14:04.302Z,92021.97
2018-01-20T19:16:30.891Z,92022.19
2018-01-20T19:18:57.554Z,92027.00
2018-01-20T19:21:24.157Z,92021.44
2018-01-20T19:23:51.026Z,92019.26
2018-01-20T19:26:17.612Z,92021.89
2018-01-20T19:28:44.210Z,92018.80
2018-01-20T19:31:11.566Z,92018.64
2018-01-20T19:33:38.874Z,92021.05
2018-01-20T19:36:05.472Z,92023.55
2018-01-20T19:38:32.889Z,92017.80
2018-01-20T19:40:59.574Z,92019.05
2018-01-20T19:43:26.211Z,92019.22
2018-01-20T19:45:53.546Z,92021.23
2018-01-20T19:48:20.858Z,92019.22
2018-01-20T19:50:47.488Z,92026.67
2018-01-20T19:53:14.069Z,92034.04
2018-01-20T19:55:41.430Z,92030.74
2018-01-20T19:58:08.743Z,92019.80
2018-01-20T20:00:35.313Z,92018.50
2018-01-20T20:03:01.968Z,92027.48
2018-01-20T20:05:29.362Z,92023.54
2018-01-20T20:07:55.978Z,92031.89
2018-01-20T20:10:22.593Z,92033.42
2018-01-20T20:12:49.208Z,92047.30
2018-01-20T20:15:16.634Z,92042.02
2018-01-20T20:17:43.269Z,92040.86
2018-01-20T20:20:09.864Z,92051.01
2018-01-20T20:22:37.178Z,92047.79
2018-01-20T20:25:03.788Z,92030.91
2018-01-20T20:27:30.399Z,92036.27
2018-01-20T20:29:57.773Z,92037.70
2018-01-20T20:32:24.379Z,92045.50
2018-01-20T20:34:51.723Z,92058.63
2018-01-20T20:37:19.102Z,92057.20
2018-01-20T20:39:45.717Z,92055.24
2018-01-20T20:42:12.381Z,92054.88
2018-01-20T20:44:38.994Z,92059.40
2018-01-20T20:47:06.331Z,92060.33
2018-01-20T20:49:32.921Z,92048.15
2018-01-20T20:51:59.561Z,92032.02
2018-01-20T20:54:26.135Z,92025.55
2018-01-20T20:56:52.966Z,92029.38
2018-01-20T20:59:19.557Z,92027.95
2018-01-20T21:01:46.139Z,92026.20
2018-01-20T21:04:12.862Z,92028.80
2018-01-20T21:06:40.285Z,92034.96
2018-01-20T21:09:06.886Z,92020.23
2018-01-20T21:11:33.476Z,92032.59
2018-01-20T21:14:00.105Z,92032.53
2018-01-20T21:16:26.713Z,92026.16
2018-01-20T21:18:53.405Z,92027.66
2018-01-20T21:21:20.057Z,92026.25
2018-01-20T21:23:46.710Z,92023.22
2018-01-20T21:26:13.518Z,92021.95
2018-01-20T21:28:40.110Z,92017.70
2018-01-20T21:31:07.418Z,92012.09
2018-01-20T21:33:34.076Z,92024.67
2018-01-20T21:36:00.668Z,92026.64
2018-01-20T21:38:27.279Z,92018.25
2018-01-20T21:40:54.606Z,92020.26
2018-01-20T21:43:21.206Z,92028.83
2018-01-20T21:45:47.804Z,92031.02
2018-01-20T21:48:15.405Z,92033.77
2018-01-20T21:50:41.957Z,92037.00
2018-01-20T21:53:08.556Z,92044.32
2018-01-20T21:55:35.201Z,92046.56
2018-01-20T21:58:01.774Z,92042.98
2018-01-20T22:00:28.438Z,92055.36
2018-01-20T22:02:55.834Z,92054.16
2018-01-20T22:05:22.458Z,92060.14
2018-01-20T22:07:49.094Z,92064.11
2018-01-20T22:10:16.385Z,92058.97
2018-01-20T22:12:43.022Z,92064.55
2018-01-20T22:15:09.617Z,92065.75
2018-01-20T22:17:36.239Z,92070.12
2018-01-20T22:20:02.858Z,92078.00
2018-01-20T22:22:29.453Z,92087.47
2018-01-20T22:24:56.090Z,92083.30
2018-01-20T22:27:22.657Z,92090.55
2018-01-20T22:29:49.250Z,92097.25
2018-01-20T22:32:15.858Z,92097.69
2018-01-20T22:34:43.177Z,92106.39
2018-01-20T22:37:09.774Z,92111.08
2018-01-20T22:39:36.386Z,92106.73
2018-01-20T22:42:03.014Z,92112.56
2018-01-20T22:44:30.364Z,92109.73
2018-01-20T22:46:56.974Z,92127.00
2018-01-20T22:49:23.545Z,92134.58
2018-01-20T22:51:50.110Z,92142.55
2018-01-20T22:54:16.725Z,92134.77
2018-01-20T22:56:44.068Z,92146.70
2018-01-20T22:59:11.415Z,92153.70
2018-01-20T23:01:37.989Z,92161.26
2018-01-20T23:04:04.602Z,92171.17
2018-01-20T23:06:31.937Z,92178.95
2018-01-20T23:08:58.601Z,92181.49
2018-01-20T23:11:25.213Z,92186.97
2018-01-20T23:13:51.771Z,92192.11
2018-01-20T23:16:19.118Z,92197.33
2018-01-20T23:18:45.725Z,92203.39
2018-01-20T23:21:12.368Z,92204.91
2018-01-20T23:23:39.738Z,92204.63
2018-01-20T23:26:06.333Z,92208.84
2018-01-20T23:28:32.901Z,92223.91
2018-01-20T23:30:59.486Z,92220.56
2018-01-20T23:33:26.357Z,92230.22
2018-01-20T23:35:52.917Z,92236.38
2018-01-20T23:38:19.489Z,92233.56
2018-01-20T23:40:46.850Z,92233.16
2018-01-20T23:43:13.447Z,92244.52
2018-01-20T23:45:40.035Z,92248.02
2018-01-20T23:48:06.651Z,92244.72
2018-01-20T23:50:33.984Z,92246.48
2018-01-20T23:53:01.313Z,92258.89
2018-01-20T23:55:28.031Z,92257.76
2018-01-20T23:57:54.742Z,92263.84
